Time;durP1;ratioP1;P1;durP2;ratioP2;P2;SDS_P1;SDS_P2;PMS_P1;PMS_P2;Temp;Humidity;BMP_temperature;BMP_pressure;BME280_temperature;BME280_humidity;BME280_pressure;Samples;Min_cycle;Max_cycle;Signal;HPM_P1;HPM_P2
2022/12/28 00:02:11;;;;;;;;;;;;;;;4.77;89.04;96213.91;5115889;28;1043;-48
2022/12/28 00:04:37;;;;;;;;;;;;;;;4.78;89.03;96211.16;5116252;28;1006;-48
2022/12/28 00:07:03;;;;;;;;;;;;;;;4.78;88.61;96215.59;5115501;28;1107;-48
2022/12/28 00:09:29;;;;;;;;;;;;;;;4.78;88.42;96221.75;5115956;28;1055;-48
2022/12/28 00:11:55;;;;;;;;;;;;;;;4.69;88.65;96220.53;5115608;28;1910;-48
2022/12/28 00:14:21;;;;;;;;;;;;;;;4.55;89.38;96225.88;5115481;28;1076;-48
2022/12/28 00:16:47;;;;;;;;;;;;;;;4.50;89.82;96220.88;5115697;28;964;-48
2022/12/28 00:19:14;;;;;;;;;;;;;;;4.62;89.52;96226.34;5115750;28;1034;-48
2022/12/28 00:21:41;;;;;;;;;;;;;;;4.64;89.34;96227.09;5115552;28;1020;-48
2022/12/28 00:24:07;;;;;;;;;;;;;;;4.56;89.75;96222.28;5115524;28;1060;-48
2022/12/28 00:26:34;;;;;;;;;;;;;;;4.61;89.46;96224.63;5115497;28;976;-48
2022/12/28 00:29:00;;;;;;;;;;;;;;;4.74;88.62;96224.69;5115328;28;1023;-48
2022/12/28 00:31:26;;;;;;;;;;;;;;;4.84;88.19;96217.88;5115276;28;2001;-48
2022/12/28 00:33:52;;;;;;;;;;;;;;;4.87;87.65;96226.44;5115291;28;1064;-48
2022/12/28 00:36:18;;;;;;;;;;;;;;;4.75;88.34;96227.25;5115437;28;1042;-48
2022/12/28 00:38:44;;;;;;;;;;;;;;;4.67;88.86;96229.56;5115202;28;1090;-48
2022/12/28 00:41:11;;;;;;;;;;;;;;;4.49;89.21;96237.69;5115165;28;1074;-48
2022/12/28 00:43:37;;;;;;;;;;;;;;;4.47;89.41;96234.31;5115100;27;1031;-48
2022/12/28 00:46:03;;;;;;;;;;;;;;;4.52;89.24;96241.13;5114987;28;999;-48
2022/12/28 00:48:29;;;;;;;;;;;;;;;4.52;89.00;96233.19;5115355;28;1180;-48
2022/12/28 00:51:10;;;;;;;;;;;;;;;4.59;88.83;96242.41;5115054;28;999;-48
2022/12/28 00:53:36;;;;;;;;;;;;;;;4.65;88.20;96240.25;5114945;28;1901;-48
2022/12/28 00:56:04;;;;;;;;;;;;;;;4.65;88.39;96236.75;5113891;28;1039;-48
2022/12/28 00:58:30;;;;;;;;;;;;;;;4.52;88.74;96238.47;5114736;28;1082;-48
2022/12/28 01:00:56;;;;;;;;;;;;;;;4.50;88.55;96239.41;5114951;28;953;-48
2022/12/28 01:03:22;;;;;;;;;;;;;;;4.38;89.02;96245.50;5114684;28;1103;-48
2022/12/28 01:05:48;;;;;;;;;;;;;;;4.34;89.29;96248.41;5114834;28;1043;-48
2022/12/28 01:08:14;;;;;;;;;;;;;;;4.41;89.23;96247.09;5114618;28;1051;-48
2022/12/28 01:10:40;;;;;;;;;;;;;;;4.48;88.75;96241.31;5114578;28;1187;-48
2022/12/28 01:13:06;;;;;;;;;;;;;;;4.43;88.61;96238.09;5114159;28;1913;-48
2022/12/28 01:15:32;;;;;;;;;;;;;;;4.44;88.96;96239.81;5113501;28;1032;-48
2022/12/28 01:17:58;;;;;;;;;;;;;;;4.43;88.98;96227.50;5114585;28;1047;-48
2022/12/28 01:20:24;;;;;;;;;;;;;;;4.36;89.18;96234.13;5114544;28;1050;-48
2022/12/28 01:22:50;;;;;;;;;;;;;;;4.41;89.22;96232.03;5114494;28;960;-48
2022/12/28 01:25:16;;;;;;;;;;;;;;;4.52;88.87;96230.53;5114240;28;1035;-48
2022/12/28 01:27:42;;;;;;;;;;;;;;;4.48;89.37;96236.00;5114239;28;1003;-48
2022/12/28 01:30:09;;;;;;;;;;;;;;;4.48;89.27;96240.47;5114221;28;797;-48
2022/12/28 01:32:35;;;;;;;;;;;;;;;4.63;88.88;96235.97;5114363;28;1913;-48
2022/12/28 01:35:02;;;;;;;;;;;;;;;4.71;88.08;96235.50;5114307;28;978;-48
2022/12/28 01:37:28;;;;;;;;;;;;;;;4.65;88.48;96234.09;5114296;28;975;-48
2022/12/28 01:39:54;;;;;;;;;;;;;;;4.50;89.28;96244.72;5114066;28;972;-48
2022/12/28 01:42:20;;;;;;;;;;;;;;;4.40;90.02;96248.91;5114046;28;1028;-48
2022/12/28 01:44:47;;;;;;;;;;;;;;;4.24;90.76;96243.69;5114006;28;1036;-48
2022/12/28 01:47:15;;;;;;;;;;;;;;;4.18;90.95;96240.59;5113986;28;1043;-48
2022/12/28 01:49:41;;;;;;;;;;;;;;;4.20;91.21;96236.91;5114077;28;1204;-48
2022/12/28 01:52:09;;;;;;;;;;;;;;;4.26;90.79;96238.31;5113939;28;1906;-48
2022/12/28 01:54:57;;;;;;;;;;;;;;;4.24;90.60;96238.41;5114008;28;1048;-48
2022/12/28 01:57:26;;;;;;;;;;;;;;;4.24;90.44;96235.75;5114191;28;1220;-48
2022/12/28 01:59:55;;;;;;;;;;;;;;;4.32;89.92;96226.47;5113873;28;1126;-48
2022/12/28 02:02:22;;;;;;;;;;;;;;;4.26;89.85;96228.56;5112620;28;1099;-48
2022/12/28 02:04:48;;;;;;;;;;;;;;;4.27;90.61;96227.63;5113946;28;1061;-48
2022/12/28 02:07:18;;;;;;;;;;;;;;;4.37;89.59;96222.59;5119015;28;1038;-48
2022/12/28 02:09:45;;;;;;;;;;;;;;;4.35;89.34;96229.78;5121205;27;952;-48
2022/12/28 02:12:13;;;;;;;;;;;;;;;4.27;88.58;96232.09;5120480;27;1906;-48
2022/12/28 02:14:39;;;;;;;;;;;;;;;4.22;88.83;96231.50;5120502;27;1257;-48
2022/12/28 02:17:07;;;;;;;;;;;;;;;4.17;89.54;96231.78;5120410;28;1019;-47
2022/12/28 02:19:39;;;;;;;;;;;;;;;4.27;89.07;96229.44;5120647;27;999;-48
2022/12/28 02:22:11;;;;;;;;;;;;;;;4.20;88.38;96234.25;5120394;27;988;-48
2022/12/28 02:24:56;;;;;;;;;;;;;;;4.06;88.18;96229.81;5120698;28;951;-48
2022/12/28 02:27:25;;;;;;;;;;;;;;;3.80;89.22;96220.81;5120600;27;992;-48
2022/12/28 02:30:20;;;;;;;;;;;;;;;3.84;89.37;96224.97;5120557;27;1031;-48
2022/12/28 02:32:53;;;;;;;;;;;;;;;3.79;89.15;96223.56;5103130;27;1910;-48
2022/12/28 02:35:43;;;;;;;;;;;;;;;3.60;89.17;96213.25;5120633;27;957;-47
2022/12/28 02:38:14;;;;;;;;;;;;;;;3.45;89.52;96209.72;5120357;27;1075;-48
2022/12/28 02:40:44;;;;;;;;;;;;;;;3.57;89.08;96216.94;5120342;27;1032;-48
2022/12/28 02:43:11;;;;;;;;;;;;;;;3.54;88.56;96208.34;5119052;28;1003;-48
2022/12/28 02:51:22;;;;;;;;;;;;;;;3.28;88.60;96195.72;5120210;28;1054;-48
2022/12/28 02:54:09;;;;;;;;;;;;;;;3.18;87.99;96202.47;5120154;27;1968;-48
2022/12/28 02:56:38;;;;;;;;;;;;;;;3.06;88.54;96196.13;5120383;27;949;-48
2022/12/28 02:59:04;;;;;;;;;;;;;;;3.01;88.56;96190.25;5120039;28;1052;-47
2022/12/28 03:01:49;;;;;;;;;;;;;;;2.99;88.36;96191.28;5120089;28;1059;-48
2022/12/28 03:04:15;;;;;;;;;;;;;;;2.93;88.26;96184.59;5119977;28;1032;-48
2022/12/28 03:09:52;;;;;;;;;;;;;;;2.81;87.57;96190.56;5120179;27;1033;-47
2022/12/28 03:12:18;;;;;;;;;;;;;;;2.60;88.18;96197.91;5119955;27;1913;-48
2022/12/28 03:14:47;;;;;;;;;;;;;;;2.45;90.10;96197.00;5119917;27;1203;-48
2022/12/28 03:31:17;;;;;;;;;;;;;;;2.51;88.98;96204.59;5073526;28;1032;-48
2022/12/28 03:33:45;;;;;;;;;;;;;;;2.41;89.23;96198.97;5098013;28;1909;-47
2022/12/28 03:36:14;;;;;;;;;;;;;;;2.42;88.95;96205.94;5116557;28;1043;-47
2022/12/28 03:38:43;;;;;;;;;;;;;;;2.46;88.79;96207.47;5116511;28;983;-47
2022/12/28 03:41:15;;;;;;;;;;;;;;;2.53;88.74;96215.91;5116292;28;999;-48
2022/12/28 03:43:45;;;;;;;;;;;;;;;2.48;89.32;96205.59;5116270;28;1103;-48
2022/12/28 03:46:19;;;;;;;;;;;;;;;2.57;89.04;96212.16;5116380;28;1488;-48
2022/12/28 03:48:46;;;;;;;;;;;;;;;2.57;88.66;96217.44;5116117;28;1181;-48
2022/12/28 03:51:14;;;;;;;;;;;;;;;2.67;89.51;96213.31;5116161;28;964;-48
2022/12/28 03:53:44;;;;;;;;;;;;;;;2.79;89.57;96217.09;5116056;28;1905;-47
2022/12/28 03:56:14;;;;;;;;;;;;;;;2.60;87.59;96208.47;5115967;28;1062;-48
2022/12/28 03:58:41;;;;;;;;;;;;;;;2.44;88.66;96206.69;5116245;28;1020;-48
2022/12/28 04:01:07;;;;;;;;;;;;;;;2.57;91.28;96217.44;5115833;28;1040;-48
2022/12/28 04:03:33;;;;;;;;;;;;;;;2.76;92.39;96219.03;5116036;28;976;-48
2022/12/28 04:05:59;;;;;;;;;;;;;;;2.97;91.56;96211.69;5115879;28;980;-48
2022/12/28 04:08:25;;;;;;;;;;;;;;;2.95;91.77;96216.19;5115885;28;1039;-48
2022/12/28 04:10:51;;;;;;;;;;;;;;;2.75;90.29;96207.59;5115759;28;1028;-48
2022/12/28 04:13:17;;;;;;;;;;;;;;;2.70;90.47;96204.41;5115648;28;1910;-47
2022/12/28 04:15:43;;;;;;;;;;;;;;;2.73;89.88;96204.19;5115627;28;1032;-48
2022/12/28 04:18:09;;;;;;;;;;;;;;;2.81;89.99;96207.28;5115497;28;1186;-48
2022/12/28 04:20:35;;;;;;;;;;;;;;;2.78;90.39;96218.00;5115739;28;972;-48
2022/12/28 04:23:01;;;;;;;;;;;;;;;2.83;90.24;96218.59;5115457;28;1103;-48
2022/12/28 04:25:27;;;;;;;;;;;;;;;2.88;90.79;96220.97;5115394;28;968;-48
2022/12/28 04:27:53;;;;;;;;;;;;;;;3.00;90.10;96215.00;5115829;28;944;-48
2022/12/28 04:30:19;;;;;;;;;;;;;;;3.03;89.92;96211.31;5115388;28;955;-48
2022/12/28 04:32:45;;;;;;;;;;;;;;;3.04;90.11;96215.66;5115387;28;1991;-47
2022/12/28 04:35:11;;;;;;;;;;;;;;;3.08;89.58;96209.25;5115233;28;1994;-48
2022/12/28 04:37:37;;;;;;;;;;;;;;;3.15;90.07;96209.75;5115245;27;1055;-48
2022/12/28 04:40:03;;;;;;;;;;;;;;;2.85;89.29;96207.97;5115051;28;972;-48
2022/12/28 04:42:31;;;;;;;;;;;;;;;2.77;90.49;96200.47;5115390;28;936;-48
2022/12/28 04:44:57;;;;;;;;;;;;;;;2.89;90.29;96194.47;5113993;28;977;-47
2022/12/28 04:47:23;;;;;;;;;;;;;;;3.01;90.51;96207.91;5115179;28;980;-48
2022/12/28 04:49:49;;;;;;;;;;;;;;;2.99;89.74;96207.16;5115056;28;1247;-48
2022/12/28 04:52:15;;;;;;;;;;;;;;;2.90;88.80;96211.16;5114639;27;1992;-48
2022/12/28 04:54:41;;;;;;;;;;;;;;;2.96;89.84;96212.59;5114781;28;1071;-48
2022/12/28 04:57:07;;;;;;;;;;;;;;;2.98;90.13;96208.94;5114806;28;936;-48
2022/12/28 04:59:33;;;;;;;;;;;;;;;2.95;90.38;96203.84;5114947;28;1096;-47
2022/12/28 05:01:59;;;;;;;;;;;;;;;2.84;90.59;96211.53;5114765;28;1048;-48
2022/12/28 05:04:25;;;;;;;;;;;;;;;2.88;89.82;96218.31;5114714;28;1031;-48
2022/12/28 05:06:51;;;;;;;;;;;;;;;3.04;89.76;96215.66;5114784;28;964;-48
2022/12/28 05:09:18;;;;;;;;;;;;;;;2.99;89.94;96217.72;5114595;28;1051;-48
2022/12/28 05:11:44;;;;;;;;;;;;;;;2.86;89.39;96228.13;5114524;28;1909;-48
2022/12/28 05:14:10;;;;;;;;;;;;;;;2.91;89.87;96220.81;5114568;28;1237;-47
2022/12/28 05:16:36;;;;;;;;;;;;;;;2.90;90.78;96221.72;5114451;28;1094;-48
2022/12/28 05:19:02;;;;;;;;;;;;;;;2.80;90.69;96226.69;5114435;28;1059;-47
2022/12/28 05:21:28;;;;;;;;;;;;;;;2.88;91.03;96223.59;5114428;28;1003;-47
2022/12/28 05:23:55;;;;;;;;;;;;;;;2.83;90.81;96225.69;5114350;28;991;-48
2022/12/28 05:26:23;;;;;;;;;;;;;;;2.88;90.70;96220.97;5114519;28;995;-48
2022/12/28 05:28:49;;;;;;;;;;;;;;;2.86;90.21;96225.50;5114278;28;1127;-48
2022/12/28 05:31:16;;;;;;;;;;;;;;;2.75;90.79;96223.44;5114245;28;1093;-48
2022/12/28 05:33:43;;;;;;;;;;;;;;;2.65;90.69;96222.28;5114104;28;1989;-48
2022/12/28 05:36:10;;;;;;;;;;;;;;;2.55;91.09;96219.31;5114251;28;1042;-48
2022/12/28 05:38:36;;;;;;;;;;;;;;;2.35;91.43;96241.53;5114060;28;1031;-48
2022/12/28 05:41:06;;;;;;;;;;;;;;;2.40;91.65;96238.66;5113864;28;1048;-48
2022/12/28 05:43:32;;;;;;;;;;;;;;;2.46;91.57;96240.94;5114366;28;1031;-48
2022/12/28 05:45:59;;;;;;;;;;;;;;;2.54;90.86;96236.06;5114029;28;1078;-48
2022/12/28 05:48:25;;;;;;;;;;;;;;;2.53;90.82;96240.50;5113983;28;1229;-48
2022/12/28 05:50:51;;;;;;;;;;;;;;;2.43;90.12;96243.72;5113952;28;1088;-47
2022/12/28 05:53:17;;;;;;;;;;;;;;;2.10;89.78;96252.56;5113725;28;1984;-48
2022/12/28 05:55:43;;;;;;;;;;;;;;;2.02;89.47;96260.03;5112985;28;1032;-47
2022/12/28 05:58:09;;;;;;;;;;;;;;;2.07;89.90;96258.03;5114053;28;1023;-48
2022/12/28 06:00:35;;;;;;;;;;;;;;;2.21;90.11;96259.91;5113820;28;1040;-48
2022/12/28 06:03:01;;;;;;;;;;;;;;;2.23;90.23;96261.53;5113966;28;949;-47
2022/12/28 06:05:27;;;;;;;;;;;;;;;2.12;89.06;96262.09;5113720;28;1126;-47
2022/12/28 06:07:53;;;;;;;;;;;;;;;1.93;90.08;96272.78;5113706;28;1044;-47
2022/12/28 06:10:19;;;;;;;;;;;;;;;1.88;90.40;96280.09;5113967;28;1039;-47
2022/12/28 06:12:45;;;;;;;;;;;;;;;1.87;91.56;96272.25;5113669;28;1902;-48
2022/12/28 06:15:11;;;;;;;;;;;;;;;2.08;91.34;96280.81;5113772;28;1028;-47
2022/12/28 06:17:37;;;;;;;;;;;;;;;2.29;90.79;96274.38;5113598;28;1075;-47
2022/12/28 06:20:03;;;;;;;;;;;;;;;2.47;89.58;96272.53;5113757;28;1020;-47
2022/12/28 06:22:29;;;;;;;;;;;;;;;2.52;88.96;96272.28;5113475;28;1099;-48
2022/12/28 06:24:55;;;;;;;;;;;;;;;2.65;88.03;96272.47;5113891;28;1115;-48
2022/12/28 06:27:21;;;;;;;;;;;;;;;2.70;88.47;96283.63;5113719;28;1102;-48
2022/12/28 06:29:47;;;;;;;;;;;;;;;2.66;88.02;96274.19;5113877;28;1043;-48
2022/12/28 06:32:13;;;;;;;;;;;;;;;2.66;88.23;96260.97;5113542;28;2000;-48
2022/12/28 06:34:39;;;;;;;;;;;;;;;2.72;87.46;96269.38;5113559;28;1034;-48
2022/12/28 06:37:05;;;;;;;;;;;;;;;2.89;87.36;96257.03;5113464;28;1015;-48
2022/12/28 06:39:31;;;;;;;;;;;;;;;3.13;86.91;96268.84;5113398;28;1012;-48
2022/12/28 06:41:57;;;;;;;;;;;;;;;3.79;83.89;96257.97;5113640;28;1042;-48
2022/12/28 06:44:23;;;;;;;;;;;;;;;3.91;81.42;96265.16;5113505;28;1031;-47
2022/12/28 06:46:49;;;;;;;;;;;;;;;3.28;84.73;96264.47;5113572;28;976;-48
2022/12/28 06:49:15;;;;;;;;;;;;;;;3.07;86.48;96269.19;5113393;28;1212;-47
2022/12/28 06:51:41;;;;;;;;;;;;;;;3.04;87.01;96276.44;5113133;28;1997;-48
2022/12/28 06:54:08;;;;;;;;;;;;;;;3.08;86.94;96270.88;5115840;28;1043;-48
2022/12/28 06:56:34;;;;;;;;;;;;;;;3.03;86.78;96267.66;5115987;28;1099;-47
2022/12/28 06:59:00;;;;;;;;;;;;;;;3.07;87.40;96274.47;5117370;28;1039;-48
2022/12/28 07:01:28;;;;;;;;;;;;;;;3.17;87.43;96273.94;5117045;28;1036;-47
2022/12/28 07:03:54;;;;;;;;;;;;;;;3.21;87.45;96271.03;5117146;28;1028;-47
2022/12/28 07:06:21;;;;;;;;;;;;;;;3.35;87.94;96272.03;5116938;28;1075;-47
2022/12/28 07:08:48;;;;;;;;;;;;;;;3.42;87.45;96270.72;5117035;28;1015;-48
2022/12/28 07:11:16;;;;;;;;;;;;;;;3.27;88.86;96275.13;5117175;28;1039;-48
2022/12/28 07:13:42;;;;;;;;;;;;;;;3.18;88.26;96273.84;5116615;28;1984;-48
2022/12/28 07:16:16;;;;;;;;;;;;;;;3.28;88.25;96274.16;5116989;28;1031;-48
2022/12/28 07:18:42;;;;;;;;;;;;;;;3.34;88.38;96273.84;5116714;28;1020;-48
2022/12/28 07:21:16;;;;;;;;;;;;;;;3.33;89.09;96278.25;5116827;28;1008;-48
2022/12/28 07:23:42;;;;;;;;;;;;;;;3.51;89.47;96278.13;5116728;28;1028;-47
2022/12/28 07:26:14;;;;;;;;;;;;;;;3.61;90.01;96273.16;5116923;27;976;-48
2022/12/28 07:28:44;;;;;;;;;;;;;;;3.74;90.08;96273.25;5116650;28;1098;-48
2022/12/28 07:31:12;;;;;;;;;;;;;;;3.98;89.93;96268.28;5116736;28;1016;-48
2022/12/28 07:33:38;;;;;;;;;;;;;;;4.13;90.34;96269.97;5116349;28;1992;-47
2022/12/28 07:36:05;;;;;;;;;;;;;;;4.43;87.90;96269.88;5116549;28;1004;-47
2022/12/28 07:38:33;;;;;;;;;;;;;;;4.64;87.14;96272.13;5116669;28;1047;-47
2022/12/28 07:41:03;;;;;;;;;;;;;;;4.69;86.63;96259.44;5113598;28;1379;-47
2022/12/28 07:43:29;;;;;;;;;;;;;;;4.63;88.13;96271.28;5116198;28;937;-47
2022/12/28 07:45:59;;;;;;;;;;;;;;;4.62;88.95;96272.22;5116344;28;1001;-47
2022/12/28 07:48:25;;;;;;;;;;;;;;;4.68;88.37;96282.41;5116389;28;1149;-47
2022/12/28 07:50:51;;;;;;;;;;;;;;;4.76;88.26;96281.97;5115995;28;1471;-47
2022/12/28 07:53:17;;;;;;;;;;;;;;;4.86;87.00;96291.00;5116288;28;1994;-47
2022/12/28 07:55:43;;;;;;;;;;;;;;;4.64;87.07;96298.63;5116213;28;956;-47
2022/12/28 07:58:09;;;;;;;;;;;;;;;4.47;87.80;96305.81;5116243;28;1051;-47
2022/12/28 08:00:35;;;;;;;;;;;;;;;4.11;89.56;96298.34;5116031;28;1046;-47
2022/12/28 08:03:01;;;;;;;;;;;;;;;4.18;89.80;96304.13;5114546;28;1402;-47
2022/12/28 08:05:27;;;;;;;;;;;;;;;4.14;90.25;96305.25;5115349;28;1079;-47
2022/12/28 08:07:53;;;;;;;;;;;;;;;4.28;89.65;96292.84;5116137;28;1055;-47
2022/12/28 08:10:19;;;;;;;;;;;;;;;4.34;89.16;96304.88;5115827;28;1174;-47
2022/12/28 08:12:46;;;;;;;;;;;;;;;4.41;89.95;96308.84;5115311;28;1910;-48
2022/12/28 08:15:12;;;;;;;;;;;;;;;4.60;89.88;96308.56;5115881;28;1047;-47
2022/12/28 08:17:38;;;;;;;;;;;;;;;4.79;89.00;96313.53;5115675;27;1011;-47
2022/12/28 08:20:05;;;;;;;;;;;;;;;4.83;89.48;96319.50;5115884;28;1040;-47
2022/12/28 08:22:31;;;;;;;;;;;;;;;4.92;89.13;96312.78;5115504;28;1226;-47
2022/12/28 08:24:57;;;;;;;;;;;;;;;5.01;88.87;96309.53;5115613;28;1044;-47
2022/12/28 08:27:23;;;;;;;;;;;;;;;5.04;88.73;96304.88;5115378;28;1036;-47
2022/12/28 08:29:49;;;;;;;;;;;;;;;5.23;87.99;96303.69;5115587;28;1031;-47
2022/12/28 08:32:15;;;;;;;;;;;;;;;5.36;87.63;96301.09;5115111;28;1991;-47
2022/12/28 08:34:41;;;;;;;;;;;;;;;5.50;87.03;96302.81;5115512;28;1031;-47
2022/12/28 08:37:07;;;;;;;;;;;;;;;5.62;86.32;96307.31;5115539;28;972;-47
2022/12/28 08:39:33;;;;;;;;;;;;;;;5.75;85.11;96309.97;5115205;28;1032;-47
2022/12/28 08:41:59;;;;;;;;;;;;;;;6.01;83.85;96309.13;5114987;28;1259;-47
2022/12/28 08:44:25;;;;;;;;;;;;;;;6.17;83.22;96303.59;5115192;28;956;-48
2022/12/28 08:46:52;;;;;;;;;;;;;;;6.42;82.58;96300.06;5115122;28;1018;-48
2022/12/28 08:49:18;;;;;;;;;;;;;;;6.56;81.08;96292.94;5114823;28;1255;-47
2022/12/28 08:51:45;;;;;;;;;;;;;;;6.53;79.48;96294.03;5113526;28;1914;-48
2022/12/28 08:54:12;;;;;;;;;;;;;;;6.66;80.71;96296.66;5115000;28;1044;-48
2022/12/28 08:56:39;;;;;;;;;;;;;;;6.79;80.32;96294.84;5114930;28;1032;-48
2022/12/28 08:59:05;;;;;;;;;;;;;;;6.90;80.24;96299.34;5114969;28;1704;-48
2022/12/28 09:01:33;;;;;;;;;;;;;;;6.84;79.76;96292.66;5114502;28;1023;-48
2022/12/28 09:03:59;;;;;;;;;;;;;;;6.75;80.70;96295.97;5115082;28;1014;-48
2022/12/28 09:06:27;;;;;;;;;;;;;;;6.92;79.57;96296.59;5114685;28;1020;-48
2022/12/28 09:08:54;;;;;;;;;;;;;;;6.93;79.79;96290.31;5114883;28;1308;-48
2022/12/28 09:11:21;;;;;;;;;;;;;;;6.95;80.41;96288.41;5114325;27;1289;-48
2022/12/28 09:13:47;;;;;;;;;;;;;;;7.05;80.50;96284.09;5114513;28;1910;-48
2022/12/28 09:16:17;;;;;;;;;;;;;;;7.06;81.62;96290.25;5114039;28;1055;-48
2022/12/28 09:18:44;;;;;;;;;;;;;;;7.06;81.43;96287.59;5114724;28;1070;-47
2022/12/28 09:21:10;;;;;;;;;;;;;;;7.15;81.51;96298.44;5114452;28;1056;-48
2022/12/28 09:23:36;;;;;;;;;;;;;;;7.25;80.88;96295.97;5114490;28;1039;-47
2022/12/28 09:26:04;;;;;;;;;;;;;;;7.38;79.86;96288.78;5114332;28;1075;-48
2022/12/28 09:28:30;;;;;;;;;;;;;;;7.36;79.94;96292.50;5114162;28;1023;-48
2022/12/28 09:30:56;;;;;;;;;;;;;;;7.32;80.23;96283.91;5114280;28;1094;-48
2022/12/28 09:36:06;;;;;;;;;;;;;;;7.04;81.80;96274.44;5114476;28;1019;-47
2022/12/28 09:38:32;;;;;;;;;;;;;;;7.12;82.32;96264.09;5113069;28;1004;-48
2022/12/28 09:40:58;;;;;;;;;;;;;;;7.21;81.63;96263.41;5114144;28;980;-48
2022/12/28 09:43:25;;;;;;;;;;;;;;;7.18;80.53;96260.13;5114081;28;1234;-48
2022/12/28 09:45:53;;;;;;;;;;;;;;;7.17;81.21;96253.97;5114069;28;1075;-48
2022/12/28 09:48:21;;;;;;;;;;;;;;;7.13;81.28;96241.84;5114195;28;1253;-48
2022/12/28 09:50:49;;;;;;;;;;;;;;;7.38;80.93;96235.56;5114206;28;971;-48
2022/12/28 09:53:25;;;;;;;;;;;;;;;7.52;80.19;96237.16;5113653;28;1901;-48
2022/12/28 09:56:11;;;;;;;;;;;;;;;7.72;79.94;96241.00;5113880;28;1032;-48
2022/12/28 09:58:39;;;;;;;;;;;;;;;8.08;76.54;96225.81;5103219;28;1285;-48
2022/12/28 10:01:09;;;;;;;;;;;;;;;8.65;74.48;96223.16;5113931;28;1115;-48
2022/12/28 10:03:36;;;;;;;;;;;;;;;8.63;74.38;96206.44;5113677;28;1040;-48
2022/12/28 10:06:07;;;;;;;;;;;;;;;8.91;74.19;96207.72;5113808;28;1063;-48
2022/12/28 10:08:37;;;;;;;;;;;;;;;8.95;74.27;96214.50;5113794;28;1031;-48
2022/12/28 10:11:04;;;;;;;;;;;;;;;9.38;73.22;96208.31;5113845;28;2006;-47
2022/12/28 10:21:31;;;;;;;;;;;;;;;9.89;70.32;96209.38;5069042;28;1334;-50
2022/12/28 10:23:58;;;;;;;;;;;;;;;9.68;71.23;96204.88;5073228;28;1083;-50
2022/12/28 10:26:27;;;;;;;;;;;;;;;9.35;72.09;96203.22;5073135;28;1099;-50
2022/12/28 10:28:55;;;;;;;;;;;;;;;9.13;72.55;96198.81;5077121;28;957;-50
2022/12/28 10:31:35;;;;;;;;;;;;;;;9.14;73.32;96201.38;5076811;28;1206;-50
2022/12/28 10:34:01;;;;;;;;;;;;;;;8.92;73.54;96194.28;5077124;28;1980;-50
2022/12/28 10:36:32;;;;;;;;;;;;;;;8.98;74.12;96195.59;5077004;28;1263;-50
2022/12/28 10:38:59;;;;;;;;;;;;;;;8.87;74.36;96188.44;5077199;28;960;-50
2022/12/28 10:41:33;;;;;;;;;;;;;;;8.83;73.95;96186.19;5076705;28;1525;-50
2022/12/28 10:44:10;;;;;;;;;;;;;;;8.65;74.98;96183.16;5076812;28;1845;-50
2022/12/28 10:46:36;;;;;;;;;;;;;;;8.69;74.85;96182.81;5076793;28;1019;-50
2022/12/28 10:49:03;;;;;;;;;;;;;;;8.90;75.25;96180.22;5076726;28;1198;-50
2022/12/28 10:51:29;;;;;;;;;;;;;;;9.13;74.66;96180.16;5076618;28;1187;-50
2022/12/28 10:53:56;;;;;;;;;;;;;;;9.27;73.95;96192.34;5076721;28;1914;-50
2022/12/28 10:56:26;;;;;;;;;;;;;;;9.35;73.18;96179.19;5076592;28;971;-50
2022/12/28 10:58:53;;;;;;;;;;;;;;;9.31;72.66;96178.59;5076560;28;950;-50
2022/12/28 11:01:25;;;;;;;;;;;;;;;9.30;73.08;96184.91;5076221;28;1177;-50
2022/12/28 11:03:54;;;;;;;;;;;;;;;9.43;73.25;96184.75;5076686;28;973;-50
2022/12/28 11:06:23;;;;;;;;;;;;;;;9.47;72.50;96188.84;5076340;28;1557;-50
2022/12/28 11:09:01;;;;;;;;;;;;;;;9.49;72.35;96176.22;5076574;28;1052;-51
2022/12/28 11:11:27;;;;;;;;;;;;;;;9.49;72.30;96186.06;5076123;28;1148;-50
2022/12/28 11:13:56;;;;;;;;;;;;;;;9.36;72.39;96183.56;5075081;28;1914;-50
2022/12/28 11:16:23;;;;;;;;;;;;;;;9.37;72.43;96185.25;5076324;28;1087;-50
2022/12/28 11:18:51;;;;;;;;;;;;;;;9.40;71.60;96179.66;5076130;28;1019;-50
2022/12/28 11:21:21;;;;;;;;;;;;;;;9.44;71.85;96175.75;5074261;28;1580;-50
2022/12/28 11:23:52;;;;;;;;;;;;;;;9.52;71.15;96178.63;5091229;28;1575;-50
2022/12/28 11:26:21;;;;;;;;;;;;;;;9.58;70.25;96175.44;5075792;28;1532;-50
2022/12/28 11:28:53;;;;;;;;;;;;;;;9.58;70.65;96179.94;5074490;28;1040;-50
2022/12/28 11:31:30;;;;;;;;;;;;;;;9.67;70.60;96167.63;5074546;28;1011;-50
2022/12/28 11:34:02;;;;;;;;;;;;;;;9.71;70.70;96174.38;5074611;28;1918;-50
2022/12/28 11:36:31;;;;;;;;;;;;;;;9.69;69.80;96171.00;5075757;28;1073;-50
2022/12/28 11:39:20;;;;;;;;;;;;;;;9.64;70.51;96176.75;5057168;28;1529;-50
2022/12/28 11:41:49;;;;;;;;;;;;;;;9.61;71.49;96168.97;5074094;28;1812;-50
2022/12/28 11:44:21;;;;;;;;;;;;;;;9.61;71.02;96174.31;5075741;28;1078;-50
2022/12/28 11:47:13;;;;;;;;;;;;;;;9.61;70.07;96168.97;5074124;28;1044;-50
2022/12/28 11:49:43;;;;;;;;;;;;;;;9.65;70.36;96166.91;5065114;28;1645;-51
2022/12/28 11:52:16;;;;;;;;;;;;;;;9.71;70.17;96158.38;5064494;28;1902;-50
2022/12/28 11:54:50;;;;;;;;;;;;;;;9.74;69.34;96156.28;5075319;28;1091;-50
2022/12/28 11:57:37;;;;;;;;;;;;;;;9.78;68.48;96148.84;5075254;28;2656;-50
2022/12/28 12:00:15;;;;;;;;;;;;;;;9.74;68.80;96147.44;5075608;28;1005;-50
2022/12/28 12:02:46;;;;;;;;;;;;;;;9.76;69.20;96145.47;5075119;28;1854;-50
2022/12/28 12:05:31;;;;;;;;;;;;;;;9.81;68.10;96137.03;5075291;28;1046;-50
2022/12/28 12:07:57;;;;;;;;;;;;;;;9.80;69.70;96138.03;5075166;28;1028;-50
2022/12/28 12:10:26;;;;;;;;;;;;;;;9.76;68.36;96135.63;5075561;28;1003;-50
2022/12/28 12:12:52;;;;;;;;;;;;;;;9.78;68.34;96139.00;5075080;28;1914;-50
2022/12/28 12:15:20;;;;;;;;;;;;;;;9.80;68.04;96138.88;5075284;28;994;-50
2022/12/28 12:17:48;;;;;;;;;;;;;;;9.83;67.98;96127.94;5075262;28;1018;-50
2022/12/28 12:20:17;;;;;;;;;;;;;;;9.81;67.69;96124.56;5074878;28;1130;-50
2022/12/28 12:22:47;;;;;;;;;;;;;;;9.86;65.24;96121.47;5075022;28;1222;-50
2022/12/28 12:25:13;;;;;;;;;;;;;;;10.27;65.54;96117.03;5075274;28;998;-50
2022/12/28 12:27:42;;;;;;;;;;;;;;;10.56;65.88;96114.44;5075064;28;953;-50
2022/12/28 12:30:11;;;;;;;;;;;;;;;10.34;67.58;96115.53;5074984;28;979;-50
2022/12/28 12:32:45;;;;;;;;;;;;;;;10.38;67.21;96124.97;5074458;28;1906;-51
2022/12/28 12:35:13;;;;;;;;;;;;;;;10.40;66.30;96125.69;5075084;28;967;-51
2022/12/28 12:37:44;;;;;;;;;;;;;;;10.23;64.79;96116.44;5074772;28;1084;-52
2022/12/28 12:40:29;;;;;;;;;;;;;;;10.18;64.70;96113.31;5074837;28;1010;-51
2022/12/28 12:43:04;;;;;;;;;;;;;;;10.06;60.81;96117.09;5074394;28;1148;-49
2022/12/28 12:45:49;;;;;;;;;;;;;;;10.05;62.13;96110.88;5074711;28;1017;-49
2022/12/28 12:48:34;;;;;;;;;;;;;;;9.88;62.26;96104.31;5081282;28;1279;-48
2022/12/28 12:51:12;;;;;;;;;;;;;;;9.90;62.94;96110.41;5094784;28;1029;-49
2022/12/28 12:53:38;;;;;;;;;;;;;;;10.05;63.33;96102.00;5074378;28;2040;-49
2022/12/28 12:56:04;;;;;;;;;;;;;;;10.20;63.04;96098.00;5074680;28;1025;-49
2022/12/28 12:58:45;;;;;;;;;;;;;;;10.18;62.71;96097.28;5074220;28;1032;-49
2022/12/28 13:01:41;;;;;;;;;;;;;;;10.22;61.90;96101.38;5074338;28;1024;-49
2022/12/28 13:04:12;;;;;;;;;;;;;;;10.19;61.43;96100.78;5061134;28;1791;-49
2022/12/28 13:06:39;;;;;;;;;;;;;;;9.96;61.95;96104.53;5074143;28;1008;-49
2022/12/28 13:09:07;;;;;;;;;;;;;;;9.92;61.98;96108.44;5074453;28;1041;-49
2022/12/28 13:11:37;;;;;;;;;;;;;;;9.90;61.95;96099.72;5073809;28;1313;-49
2022/12/28 13:14:04;;;;;;;;;;;;;;;10.02;62.17;96099.63;5074167;28;1906;-49
2022/12/28 13:16:31;;;;;;;;;;;;;;;10.04;62.65;96095.84;5073967;28;1026;-49
2022/12/28 13:19:05;;;;;;;;;;;;;;;10.09;62.93;96098.09;5073953;28;968;-49
2022/12/28 13:21:41;;;;;;;;;;;;;;;10.14;62.19;96103.88;5073568;28;1324;-49
2022/12/28 13:24:18;;;;;;;;;;;;;;;10.13;62.75;96094.16;5074110;28;1049;-49
2022/12/28 13:26:44;;;;;;;;;;;;;;;10.17;62.49;96106.31;5073934;28;1060;-49
2022/12/28 13:29:16;;;;;;;;;;;;;;;10.08;62.76;96097.25;5073777;28;999;-48
2022/12/28 13:31:48;;;;;;;;;;;;;;;10.12;62.44;96109.34;5073637;28;1149;-49
2022/12/28 13:34:20;;;;;;;;;;;;;;;10.14;61.07;96104.72;5073928;28;1967;-49
2022/12/28 13:36:53;;;;;;;;;;;;;;;10.12;61.44;96109.34;5073871;28;1074;-49
2022/12/28 13:39:20;;;;;;;;;;;;;;;10.06;58.68;96103.72;5073686;28;996;-48
2022/12/28 13:41:48;;;;;;;;;;;;;;;9.89;56.03;96098.03;5073352;28;1194;-49
2022/12/28 13:44:14;;;;;;;;;;;;;;;9.83;58.62;96082.53;5073603;28;1008;-48
2022/12/28 13:46:43;;;;;;;;;;;;;;;9.83;58.05;96095.06;5072812;28;1072;-48
2022/12/28 13:49:10;;;;;;;;;;;;;;;9.63;60.48;96091.41;5073219;28;1118;-48